createdAt,value
2023-02-14T00:01:09.777Z,12.17
2023-02-14T00:03:36.745Z,12.10
2023-02-14T00:06:12.400Z,12.17
2023-02-14T00:08:41.178Z,12.73
2023-02-14T00:11:09.016Z,13.27
2023-02-14T00:13:35.898Z,14.33
2023-02-14T00:16:03.619Z,13.10
2023-02-14T00:18:49.113Z,14.03
2023-02-14T00:21:17.968Z,15.00
2023-02-14T00:23:45.118Z,14.60
2023-02-14T00:26:15.505Z,15.13
2023-02-14T00:28:43.342Z,14.60
2023-02-14T00:31:10.759Z,13.93
2023-02-14T00:33:37.687Z,15.20
2023-02-14T00:36:07.123Z,13.83
2023-02-14T00:38:34.389Z,13.40
2023-02-14T00:41:02.181Z,14.77
2023-02-14T00:43:29.316Z,14.90
2023-02-14T00:45:57.646Z,15.37
2023-02-14T00:48:24.609Z,13.23
2023-02-14T00:50:51.506Z,13.63
2023-02-14T00:53:18.344Z,11.60
2023-02-14T00:55:46.960Z,12.10
2023-02-14T00:58:15.073Z,12.90
2023-02-14T01:00:41.969Z,11.77
2023-02-14T01:03:08.807Z,13.17
2023-02-14T01:05:35.757Z,13.80
2023-02-14T01:08:04.429Z,13.43
2023-02-14T01:10:31.468Z,12.40
2023-02-14T01:12:59.165Z,12.80
2023-02-14T01:15:27.769Z,13.17
2023-02-14T01:17:54.654Z,11.00
2023-02-14T01:20:22.009Z,13.00
2023-02-14T01:22:48.924Z,12.40
2023-02-14T01:25:16.028Z,12.43
2023-02-14T01:27:42.842Z,11.70
2023-02-14T01:30:11.023Z,12.90
2023-02-14T01:32:37.847Z,12.97
2023-02-14T01:35:05.374Z,13.50
2023-02-14T01:37:32.236Z,13.20
2023-02-14T01:39:59.359Z,13.93
2023-02-14T01:42:26.704Z,13.20
2023-02-14T01:49:21.797Z,13.30
2023-02-14T01:52:05.712Z,14.60
2023-02-14T01:54:35.588Z,13.63
2023-02-14T01:57:08.028Z,12.47
2023-02-14T01:59:40.881Z,13.53
2023-02-14T02:02:08.325Z,14.27
2023-02-14T02:04:41.088Z,15.48
2023-02-14T02:07:12.307Z,15.03
2023-02-14T02:09:44.836Z,15.10
2023-02-14T02:12:12.292Z,13.50
2023-02-14T02:14:39.746Z,14.47
2023-02-14T02:17:33.835Z,13.30
2023-02-14T02:20:47.531Z,13.93
2023-02-14T02:23:14.223Z,13.07
2023-02-14T02:26:01.027Z,15.00
2023-02-14T02:28:58.425Z,14.50
2023-02-14T02:31:49.437Z,13.73
2023-02-14T02:34:44.532Z,14.43
2023-02-14T02:37:30.385Z,13.17
2023-02-14T02:40:18.110Z,13.30
2023-02-14T02:43:15.976Z,13.37
2023-02-14T02:46:11.652Z,14.43
2023-02-14T02:48:57.076Z,14.00
2023-02-14T02:52:12.845Z,15.40
2023-02-14T02:54:47.408Z,14.47
2023-02-14T02:57:22.577Z,14.53
2023-02-14T02:59:50.900Z,13.73
2023-02-14T03:02:59.798Z,13.97
2023-02-14T03:05:30.918Z,14.07
2023-02-14T03:07:58.029Z,13.70
2023-02-14T03:10:30.137Z,13.57
2023-02-14T03:12:59.562Z,13.43
2023-02-14T03:15:35.198Z,13.97
2023-02-14T03:18:18.349Z,14.07
2023-02-14T03:21:06.669Z,14.37
2023-02-14T03:23:36.718Z,14.70
2023-02-14T03:26:10.470Z,13.00
2023-02-14T03:28:59.209Z,13.90
2023-02-14T03:31:36.175Z,13.80
2023-02-14T03:34:21.115Z,13.20
2023-02-14T03:36:56.611Z,13.33
2023-02-14T03:39:40.396Z,13.33
2023-02-14T03:42:18.933Z,13.40
2023-02-14T03:44:49.190Z,13.60
2023-02-14T03:47:20.627Z,12.73
2023-02-14T03:49:53.452Z,13.33
2023-02-14T03:52:22.596Z,12.83
2023-02-14T03:54:52.643Z,12.83
2023-02-14T03:57:30.369Z,12.23
2023-02-14T03:59:57.501Z,12.20
2023-02-14T04:02:39.015Z,13.60
2023-02-14T04:05:12.897Z,12.03
2023-02-14T04:08:06.006Z,12.17
2023-02-14T04:10:32.780Z,12.03
2023-02-14T04:12:59.685Z,12.30
2023-02-14T04:15:26.425Z,11.33
2023-02-14T04:18:12.085Z,12.67
2023-02-14T04:20:38.882Z,11.57
2023-02-14T04:23:05.678Z,12.30
2023-02-14T04:25:32.466Z,11.37
2023-02-14T04:27:59.219Z,12.53
2023-02-14T04:30:26.120Z,11.97
2023-02-14T04:32:52.933Z,11.47
2023-02-14T04:35:19.754Z,11.80
2023-02-14T04:37:46.537Z,12.17
2023-02-14T04:40:17.305Z,11.57
2023-02-14T04:42:47.443Z,11.83
2023-02-14T04:45:14.936Z,10.77
2023-02-14T04:47:41.734Z,11.20
2023-02-14T04:50:09.022Z,10.73
2023-02-14T04:52:35.959Z,9.97
2023-02-14T04:55:04.400Z,9.80
2023-02-14T04:57:31.659Z,10.67
2023-02-14T04:59:58.446Z,10.37
2023-02-14T05:02:25.269Z,10.53
2023-02-14T05:04:52.122Z,10.27
2023-02-14T05:07:18.865Z,10.63
2023-02-14T05:09:45.629Z,10.37
2023-02-14T05:12:12.416Z,10.30
2023-02-14T05:14:39.198Z,11.33
2023-02-14T05:17:06.012Z,12.83
2023-02-14T05:19:33.940Z,11.23
2023-02-14T05:22:00.726Z,10.60
2023-02-14T05:24:27.636Z,11.00
2023-02-14T05:26:54.372Z,10.60
2023-02-14T05:29:21.248Z,11.73
2023-02-14T05:31:48.225Z,11.00
2023-02-14T05:34:15.217Z,11.30
2023-02-14T05:36:42.001Z,11.10
2023-02-14T05:39:08.791Z,11.20
2023-02-14T05:41:35.589Z,12.60
2023-02-14T05:44:02.415Z,12.07
2023-02-14T05:46:29.335Z,11.63
2023-02-14T05:48:56.096Z,12.23
2023-02-14T05:51:22.880Z,11.67
2023-02-14T05:53:49.671Z,11.50
2023-02-14T05:56:16.507Z,12.17
2023-02-14T05:58:43.911Z,11.33
2023-02-14T06:01:10.683Z,11.47
2023-02-14T06:03:37.455Z,11.00
2023-02-14T06:06:04.418Z,12.77
2023-02-14T06:08:31.234Z,11.10
2023-02-14T06:10:58.338Z,11.67
2023-02-14T06:13:25.376Z,11.00
2023-02-14T06:15:52.184Z,11.13
2023-02-14T06:18:19.056Z,10.27
2023-02-14T06:20:45.827Z,11.23
2023-02-14T06:23:12.662Z,11.10
2023-02-14T06:25:39.639Z,11.47
2023-02-14T06:28:06.692Z,10.83
2023-02-14T06:30:33.607Z,11.00
2023-02-14T06:33:00.478Z,9.50
2023-02-14T06:35:27.351Z,12.00
2023-02-14T06:37:54.238Z,10.83
2023-02-14T06:40:21.257Z,12.53
2023-02-14T06:42:48.030Z,10.93
2023-02-14T06:45:14.886Z,9.97
2023-02-14T06:47:41.708Z,9.27
2023-02-14T06:50:11.569Z,9.40
2023-02-14T06:52:38.907Z,9.10
2023-02-14T06:55:06.188Z,10.33
2023-02-14T06:57:32.992Z,9.93
2023-02-14T06:59:59.784Z,9.93
2023-02-14T07:02:26.610Z,9.47
2023-02-14T07:04:53.471Z,9.03
2023-02-14T07:07:20.250Z,9.37
2023-02-14T07:09:47.037Z,9.37
2023-02-14T07:12:13.828Z,8.50
2023-02-14T07:14:40.784Z,9.13
2023-02-14T07:17:07.622Z,9.33
2023-02-14T07:19:34.379Z,10.03
2023-02-14T07:22:01.280Z,9.33
2023-02-14T07:24:28.056Z,9.93
2023-02-14T07:26:54.822Z,10.20
2023-02-14T07:29:21.676Z,10.13
2023-02-14T07:31:49.953Z,9.17
2023-02-14T07:34:16.914Z,9.80
2023-02-14T07:36:44.198Z,10.60
2023-02-14T07:39:11.142Z,10.27
2023-02-14T07:41:38.013Z,11.50
2023-02-14T07:44:09.623Z,9.70
2023-02-14T07:46:36.526Z,10.40
2023-02-14T07:49:03.446Z,10.27
2023-02-14T07:51:30.238Z,11.50
2023-02-14T07:53:56.987Z,11.30
2023-02-14T07:56:23.965Z,11.10
2023-02-14T07:58:50.938Z,11.70
2023-02-14T08:01:18.238Z,10.77
2023-02-14T08:03:49.241Z,10.23
2023-02-14T08:06:20.101Z,11.17
2023-02-14T08:08:47.889Z,11.17
2023-02-14T08:11:33.993Z,11.70
2023-02-14T08:14:01.004Z,10.93
2023-02-14T08:16:27.874Z,9.77
2023-02-14T08:18:54.726Z,9.17
2023-02-14T08:21:21.596Z,8.70
2023-02-14T08:23:48.408Z,9.20
2023-02-14T08:26:15.757Z,7.97
2023-02-14T08:28:43.055Z,8.40
2023-02-14T08:31:10.385Z,7.77
2023-02-14T08:33:37.164Z,7.73
2023-02-14T08:36:04.339Z,7.87
2023-02-14T08:38:31.201Z,6.63
2023-02-14T08:41:05.036Z,7.03
2023-02-14T08:43:34.473Z,7.20
2023-02-14T08:46:01.905Z,6.60
2023-02-14T08:48:28.938Z,6.47
2023-02-14T08:50:55.722Z,6.13
2023-02-14T08:53:22.753Z,6.43
2023-02-14T08:55:49.551Z,6.60
2023-02-14T08:58:16.385Z,6.10
2023-02-14T09:00:43.162Z,5.87
2023-02-14T09:03:10.664Z,5.63
2023-02-14T09:05:37.513Z,6.20
2023-02-14T09:08:04.597Z,6.07
2023-02-14T09:10:31.529Z,5.57
2023-02-14T09:12:58.342Z,6.10
2023-02-14T09:15:25.204Z,5.80
2023-02-14T09:17:52.169Z,5.83
2023-02-14T09:20:19.145Z,5.77
2023-02-14T09:22:48.422Z,5.87
2023-02-14T09:25:15.990Z,5.47
2023-02-14T09:27:42.925Z,5.37
2023-02-14T09:30:10.624Z,5.30
2023-02-14T09:32:37.415Z,5.37
2023-02-14T09:35:04.494Z,5.27
2023-02-14T09:37:50.052Z,5.23
2023-02-14T09:40:19.371Z,5.17
2023-02-14T09:43:26.054Z,5.37
2023-02-14T09:45:56.656Z,5.17
2023-02-14T09:48:29.716Z,5.27
2023-02-14T09:51:11.558Z,5.20
2023-02-14T09:53:49.875Z,5.20
2023-02-14T09:56:22.604Z,5.23
2023-02-14T09:59:19.959Z,5.37
2023-02-14T10:02:16.660Z,5.40
2023-02-14T10:05:02.172Z,5.43
2023-02-14T10:07:57.250Z,5.07
2023-02-14T10:10:44.672Z,5.93
2023-02-14T10:13:22.428Z,6.00
2023-02-14T10:15:56.750Z,5.83
2023-02-14T10:18:46.144Z,5.70
2023-02-14T10:21:22.961Z,5.13
2023-02-14T10:23:55.459Z,5.67
2023-02-14T10:26:52.020Z,5.20
2023-02-14T10:29:20.077Z,5.33
2023-02-14T10:31:55.493Z,5.93
2023-02-14T10:34:29.199Z,5.93
2023-02-14T10:36:55.952Z,5.67
2023-02-14T10:39:25.707Z,5.30
2023-02-14T10:42:09.375Z,5.80
2023-02-14T10:44:54.560Z,5.77
2023-02-14T10:47:30.601Z,5.37
2023-02-14T10:50:04.373Z,5.77
2023-02-14T10:52:58.966Z,6.13
2023-02-14T10:55:46.570Z,5.87
2023-02-14T10:58:17.520Z,5.80
2023-02-14T11:01:00.493Z,5.70
2023-02-14T11:03:29.087Z,6.27
2023-02-14T11:05:56.225Z,5.20
2023-02-14T11:08:32.040Z,5.90
2023-02-14T11:11:16.459Z,6.07
2023-02-14T11:13:43.449Z,5.83
2023-02-14T11:16:18.099Z,5.40
2023-02-14T11:18:44.932Z,5.65
2023-02-14T11:21:13.553Z,5.30
2023-02-14T11:23:43.243Z,5.00
2023-02-14T11:26:34.596Z,6.13
2023-02-14T11:29:13.212Z,5.60
2023-02-14T11:31:41.917Z,5.67
2023-02-14T11:34:42.040Z,5.53
2023-02-14T11:37:23.698Z,5.47
2023-02-14T11:39:52.253Z,5.37
2023-02-14T11:42:37.360Z,5.20
2023-02-14T11:45:05.581Z,5.53
2023-02-14T11:47:37.287Z,5.13
2023-02-14T11:50:12.690Z,5.00
2023-02-14T11:52:55.698Z,4.85
2023-02-14T11:55:34.436Z,5.72
2023-02-14T11:58:05.373Z,5.10
2023-02-14T12:00:33.621Z,5.43
2023-02-14T12:03:05.510Z,5.10
2023-02-14T12:05:43.436Z,5.40
2023-02-14T12:08:11.006Z,5.45
2023-02-14T12:10:39.188Z,4.78
2023-02-14T12:13:09.293Z,5.50
2023-02-14T12:15:47.554Z,5.53
2023-02-14T12:18:40.572Z,5.43
2023-02-14T12:21:16.037Z,6.28
2023-02-14T12:23:50.766Z,5.78
2023-02-14T12:26:35.705Z,5.80
2023-02-14T12:29:34.937Z,5.80
2023-02-14T12:32:11.376Z,4.82
2023-02-14T12:34:38.353Z,5.70
2023-02-14T12:37:28.336Z,5.05
2023-02-14T12:40:04.199Z,5.35
2023-02-14T12:42:39.983Z,5.40
2023-02-14T12:45:43.462Z,5.53
2023-02-14T12:48:28.884Z,5.00
2023-02-14T12:51:15.468Z,5.82
2023-02-14T12:53:54.382Z,5.75
2023-02-14T12:56:27.201Z,5.53
2023-02-14T12:59:18.602Z,5.88
2023-02-14T13:02:13.776Z,5.93
2023-02-14T13:05:06.257Z,6.25
2023-02-14T13:07:46.780Z,6.03
2023-02-14T13:10:24.652Z,6.53
2023-02-14T13:12:56.913Z,5.95
2023-02-14T13:15:45.589Z,6.05
2023-02-14T13:18:24.520Z,6.20
2023-02-14T13:20:56.681Z,6.22
2023-02-14T13:23:40.233Z,5.53
2023-02-14T13:26:12.045Z,6.82
2023-02-14T13:28:41.864Z,6.47
2023-02-14T13:31:11.795Z,7.00
2023-02-14T13:33:43.632Z,6.35
2023-02-14T13:36:13.357Z,6.90
2023-02-14T13:38:49.221Z,6.50
2023-02-14T13:41:17.262Z,6.17
2023-02-14T13:43:56.242Z,6.87
2023-02-14T13:46:32.246Z,6.80
2023-02-14T13:49:01.836Z,6.80
2023-02-14T13:51:56.323Z,7.20
2023-02-14T13:54:32.580Z,6.97
2023-02-14T13:57:25.214Z,7.13
2023-02-14T14:00:19.836Z,7.67
2023-02-14T14:02:53.233Z,7.77
2023-02-14T14:05:42.832Z,7.50
2023-02-14T14:08:35.438Z,7.70
2023-02-14T14:11:25.492Z,7.63
2023-02-14T14:14:01.568Z,7.23
2023-02-14T14:16:33.254Z,6.90
2023-02-14T14:19:09.264Z,7.47
2023-02-14T14:21:43.502Z,6.97
2023-02-14T14:24:27.771Z,7.93
2023-02-14T14:27:13.715Z,7.67
2023-02-14T14:29:46.077Z,7.47
2023-02-14T14:32:21.531Z,7.40
2023-02-14T14:34:50.851Z,7.80
2023-02-14T14:37:20.439Z,7.83
2023-02-14T14:40:00.001Z,7.30
2023-02-14T14:42:30.806Z,8.20
2023-02-14T14:45:01.728Z,8.43
2023-02-14T14:47:37.723Z,7.87
2023-02-14T14:50:10.211Z,7.20
2023-02-14T14:52:41.620Z,7.50
2023-02-14T14:55:16.725Z,10.13
2023-02-14T14:57:49.922Z,9.97
2023-02-14T15:00:23.938Z,8.57
2023-02-14T15:03:22.548Z,9.57
2023-02-14T15:05:51.053Z,8.37
2023-02-14T15:08:30.886Z,9.27
2023-02-14T15:11:08.450Z,8.57
2023-02-14T15:13:49.922Z,9.20
2023-02-14T15:16:48.189Z,9.53
2023-02-14T15:19:37.284Z,8.70
2023-02-14T15:22:18.228Z,8.70
2023-02-14T15:24:45.538Z,10.03
2023-02-14T15:27:16.435Z,8.87
2023-02-14T15:30:03.637Z,8.53
2023-02-14T15:32:33.160Z,8.30
2023-02-14T15:35:03.739Z,8.93
2023-02-14T15:37:31.516Z,9.17
2023-02-14T15:39:59.331Z,8.57
2023-02-14T15:42:32.919Z,9.40
2023-02-14T15:45:23.639Z,8.53
2023-02-14T15:47:53.688Z,8.13
2023-02-14T15:50:26.020Z,8.00
2023-02-14T15:52:56.262Z,9.00
2023-02-14T15:55:26.733Z,9.27
2023-02-14T15:58:01.930Z,9.80
2023-02-14T16:00:29.647Z,8.87
2023-02-14T16:03:08.460Z,10.07
2023-02-14T16:05:35.429Z,9.07
2023-02-14T16:08:22.766Z,9.40
2023-02-14T16:11:35.516Z,9.10
2023-02-14T16:14:32.214Z,9.57
2023-02-14T16:17:03.719Z,11.20
2023-02-14T16:19:41.085Z,9.93
2023-02-14T16:22:32.208Z,10.07
2023-02-14T16:24:59.490Z,10.03
2023-02-14T16:27:26.212Z,9.97
2023-02-14T16:29:53.277Z,9.97
2023-02-14T16:32:22.095Z,10.27
2023-02-14T16:34:49.625Z,10.07
2023-02-14T16:37:19.818Z,10.83
2023-02-14T16:39:47.343Z,10.30
2023-02-14T16:42:18.252Z,10.53
2023-02-14T16:44:46.082Z,10.00
2023-02-14T16:47:14.581Z,10.47
2023-02-14T16:49:41.995Z,10.07
2023-02-14T16:52:16.217Z,10.60
2023-02-14T16:54:43.283Z,10.70
2023-02-14T16:57:20.663Z,12.77
2023-02-14T16:59:47.487Z,16.37
2023-02-14T17:02:14.397Z,13.70
2023-02-14T17:04:41.143Z,13.77
2023-02-14T17:07:08.211Z,14.07
2023-02-14T17:09:40.477Z,15.17
2023-02-14T17:12:16.574Z,15.33
2023-02-14T17:14:49.329Z,18.58
2023-02-14T17:17:16.495Z,18.23
2023-02-14T17:19:43.966Z,15.17
2023-02-14T17:22:13.511Z,16.50
2023-02-14T17:24:41.690Z,16.27
2023-02-14T17:27:09.892Z,19.03
2023-02-14T17:29:37.083Z,17.43
2023-02-14T17:32:04.079Z,17.10
2023-02-14T17:34:32.360Z,18.43
2023-02-14T17:36:59.658Z,15.73
2023-02-14T17:39:26.482Z,17.43
2023-02-14T17:41:53.285Z,16.77
2023-02-14T17:44:20.052Z,17.30
2023-02-14T17:46:46.919Z,20.20
2023-02-14T17:49:13.920Z,16.40
2023-02-14T17:51:40.968Z,16.90
2023-02-14T17:54:08.136Z,14.13
2023-02-14T17:56:34.896Z,13.53
2023-02-14T17:59:01.741Z,14.67
2023-02-14T18:01:31.480Z,14.17
2023-02-14T18:03:58.395Z,11.53
2023-02-14T18:06:26.617Z,13.50
2023-02-14T18:08:56.768Z,12.60
2023-02-14T18:11:26.097Z,11.77
2023-02-14T18:13:56.405Z,12.73
2023-02-14T18:16:24.693Z,12.93
2023-02-14T18:18:51.895Z,13.27
2023-02-14T18:21:20.953Z,12.90
2023-02-14T18:23:48.416Z,15.93
2023-02-14T18:26:17.035Z,14.80
2023-02-14T18:28:43.843Z,14.57
2023-02-14T18:31:16.374Z,15.77
2023-02-14T18:33:44.005Z,12.80
2023-02-14T18:36:13.637Z,13.97
2023-02-14T18:38:41.865Z,13.83
2023-02-14T18:41:12.273Z,11.53
2023-02-14T18:43:40.974Z,12.67
2023-02-14T18:46:10.449Z,12.67
2023-02-14T18:48:37.806Z,11.93
2023-02-14T18:51:16.810Z,10.93
2023-02-14T18:53:44.905Z,12.13
2023-02-14T18:56:13.948Z,11.50
2023-02-14T18:58:42.869Z,11.60
2023-02-14T19:01:23.186Z,13.20
2023-02-14T19:03:51.312Z,12.73
2023-02-14T19:06:18.831Z,12.97
2023-02-14T19:08:46.512Z,11.50
2023-02-14T19:11:16.811Z,11.10
2023-02-14T19:13:52.663Z,13.47
2023-02-14T19:16:22.677Z,14.20
2023-02-14T19:18:55.616Z,12.20
2023-02-14T19:21:25.489Z,14.33
2023-02-14T19:23:54.556Z,17.77
2023-02-14T19:26:24.438Z,14.47
2023-02-14T19:28:56.040Z,14.53
2023-02-14T19:31:23.118Z,13.70
2023-02-14T19:33:50.337Z,14.70
2023-02-14T19:36:19.304Z,12.17
2023-02-14T19:38:49.200Z,11.70
2023-02-14T19:41:25.093Z,11.37
2023-02-14T19:43:52.579Z,9.83
2023-02-14T19:46:21.189Z,9.67
2023-02-14T19:48:48.730Z,10.30
2023-02-14T19:51:27.731Z,10.70
2023-02-14T19:53:55.919Z,9.17
2023-02-14T19:56:25.807Z,9.60
2023-02-14T19:58:53.162Z,9.60
2023-02-14T20:01:30.951Z,8.70
2023-02-14T20:03:57.793Z,9.40
2023-02-14T20:06:25.550Z,9.90
2023-02-14T20:08:53.013Z,9.73
2023-02-14T20:11:31.030Z,10.40
2023-02-14T20:13:58.476Z,9.20
2023-02-14T20:16:27.261Z,10.03
2023-02-14T20:19:02.256Z,10.17
2023-02-14T20:21:31.680Z,9.30
2023-02-14T20:24:03.057Z,9.37
2023-02-14T20:26:31.345Z,10.13
2023-02-14T20:29:06.179Z,10.60
2023-02-14T20:31:34.159Z,8.70
2023-02-14T20:34:01.496Z,9.30
2023-02-14T20:36:28.989Z,9.70
2023-02-14T20:38:57.016Z,10.10
2023-02-14T20:41:24.919Z,8.67
2023-02-14T20:43:51.844Z,9.67
2023-02-14T20:46:18.693Z,9.60
2023-02-14T20:48:45.417Z,9.33
2023-02-14T20:51:15.247Z,8.87
2023-02-14T20:53:43.445Z,10.33
2023-02-14T20:56:10.683Z,9.37
2023-02-14T20:58:39.383Z,9.47
2023-02-14T21:01:10.519Z,8.83
2023-02-14T21:03:37.550Z,10.03
2023-02-14T21:06:06.655Z,9.43
2023-02-14T21:08:34.316Z,9.47
2023-02-14T21:11:01.686Z,9.17
2023-02-14T21:13:28.865Z,8.57
2023-02-14T21:15:55.685Z,11.00
2023-02-14T21:18:22.443Z,11.87
2023-02-14T21:20:50.831Z,11.43
2023-02-14T21:23:17.623Z,10.60
2023-02-14T21:25:44.367Z,11.63
2023-02-14T21:28:11.179Z,11.00
2023-02-14T21:30:38.117Z,10.30
2023-02-14T21:33:04.893Z,10.97
2023-02-14T21:35:31.635Z,10.93
2023-02-14T21:37:58.452Z,10.10
2023-02-14T21:40:25.324Z,10.60
2023-02-14T21:42:52.047Z,10.70
2023-02-14T21:45:37.315Z,10.23
2023-02-14T21:48:23.076Z,10.03
2023-02-14T21:50:49.905Z,10.80
2023-02-14T21:53:16.716Z,10.70
2023-02-14T21:55:45.919Z,11.37
2023-02-14T21:58:13.172Z,11.20
2023-02-14T22:00:40.027Z,10.37
2023-02-14T22:03:06.839Z,11.90
2023-02-14T22:05:33.603Z,11.20
2023-02-14T22:08:00.353Z,11.97
2023-02-14T22:10:27.148Z,12.00
2023-02-14T22:12:53.880Z,11.67
2023-02-14T22:15:20.596Z,10.60
2023-02-14T22:17:47.346Z,11.00
2023-02-14T22:20:14.086Z,11.80
2023-02-14T22:22:40.829Z,11.00
2023-02-14T22:25:07.793Z,11.43
2023-02-14T22:27:39.090Z,12.00
2023-02-14T22:30:07.420Z,11.50
2023-02-14T22:32:34.137Z,11.40
2023-02-14T22:35:00.913Z,12.43
2023-02-14T22:37:27.679Z,11.10
2023-02-14T22:39:54.513Z,11.20
2023-02-14T22:42:21.276Z,12.37
2023-02-14T22:44:48.075Z,11.27
2023-02-14T22:47:14.869Z,12.23
2023-02-14T22:49:41.569Z,11.90
2023-02-14T22:52:08.374Z,11.97
2023-02-14T22:54:35.215Z,12.60
2023-02-14T22:57:01.983Z,11.60
2023-02-14T22:59:31.128Z,12.20
2023-02-14T23:01:58.252Z,11.20
2023-02-14T23:04:25.903Z,10.67
2023-02-14T23:06:53.249Z,11.77
2023-02-14T23:09:20.520Z,11.70
2023-02-14T23:11:47.710Z,11.57
2023-02-14T23:14:35.086Z,11.83
2023-02-14T23:17:14.590Z,11.73
2023-02-14T23:20:01.235Z,11.73
2023-02-14T23:22:36.798Z,10.33
2023-02-14T23:25:07.579Z,11.30
2023-02-14T23:27:41.711Z,11.93
2023-02-14T23:30:13.647Z,11.90
2023-02-14T23:32:40.621Z,12.23
2023-02-14T23:35:07.556Z,11.37
2023-02-14T23:37:34.532Z,11.57
2023-02-14T23:40:01.323Z,12.47
2023-02-14T23:42:28.248Z,13.10
2023-02-14T23:45:15.005Z,12.37
2023-02-14T23:47:41.844Z,12.83
2023-02-14T23:50:09.031Z,12.43
2023-02-14T23:52:38.301Z,13.07
2023-02-14T23:55:05.679Z,12.00
2023-02-14T23:57:32.422Z,13.53
